Time;durP1;ratioP1;P1;durP2;ratioP2;P2;SDS_P1;SDS_P2;PMS_P1;PMS_P2;Temp;Humidity;BMP_temperature;BMP_pressure;BME280_temperature;BME280_humidity;BME280_pressure;Samples;Min_cycle;Max_cycle;Signal;HPM_P1;HPM_P2
2023/05/21 00:01:15;;;;;;;8.43;6.07;;;13.80;99.90;;;;;;5033390;28;20179;-82
2023/05/21 00:03:44;;;;;;;7.10;5.80;;;13.70;99.90;;;;;;5031807;28;20170;-82
2023/05/21 00:06:14;;;;;;;6.57;5.80;;;13.70;99.90;;;;;;5033550;28;20313;-83
2023/05/21 00:08:40;;;;;;;7.32;6.05;;;13.70;99.90;;;;;;5032147;28;20174;-82
2023/05/21 00:11:06;;;;;;;6.30;5.68;;;13.70;99.90;;;;;;5032023;28;20269;-82
2023/05/21 00:13:31;;;;;;;7.50;5.53;;;13.60;99.90;;;;;;5032856;28;20317;-82
2023/05/21 00:15:57;;;;;;;8.90;6.07;;;13.60;99.90;;;;;;5033390;28;20229;-82
2023/05/21 00:18:24;;;;;;;8.80;6.30;;;13.60;99.90;;;;;;5035246;28;20175;-82
2023/05/21 00:20:50;;;;;;;9.00;5.75;;;13.60;99.90;;;;;;5035941;28;20185;-82
2023/05/21 00:23:17;;;;;;;8.43;5.43;;;13.50;99.90;;;;;;5035894;28;20178;-82
2023/05/21 00:25:44;;;;;;;7.07;6.00;;;13.50;99.90;;;;;;5035816;28;20228;-82
2023/05/21 00:28:10;;;;;;;8.05;6.10;;;13.50;99.90;;;;;;5035393;28;20178;-82
2023/05/21 00:30:36;;;;;;;7.05;5.78;;;13.40;99.90;;;;;;5035785;28;20641;-82
2023/05/21 00:33:01;;;;;;;9.18;5.88;;;13.40;99.90;;;;;;5036753;28;20226;-82
2023/05/21 00:35:28;;;;;;;10.10;5.53;;;13.40;99.90;;;;;;5036939;28;20206;-82
2023/05/21 00:37:54;;;;;;;7.28;5.65;;;13.30;99.90;;;;;;5036955;28;20167;-82
2023/05/21 00:40:20;;;;;;;8.63;6.18;;;13.30;99.90;;;;;;5035438;28;20217;-82
2023/05/21 00:42:46;;;;;;;8.40;5.30;;;13.30;99.90;;;;;;5036567;28;20640;-82
2023/05/21 00:45:13;;;;;;;6.97;5.40;;;13.20;99.90;;;;;;5035296;28;20182;-82
2023/05/21 00:47:42;;;;;;;7.10;5.20;;;13.30;99.90;;;;;;5035463;28;20635;-82
2023/05/21 00:50:09;;;;;;;6.88;5.53;;;13.20;99.90;;;;;;5036653;28;20186;-82
2023/05/21 00:52:40;;;;;;;6.88;5.55;;;13.20;99.90;;;;;;5035289;28;20266;-82
2023/05/21 00:55:07;;;;;;;8.80;5.78;;;13.20;99.90;;;;;;5036450;28;20224;-82
2023/05/21 00:57:36;;;;;;;9.18;5.80;;;13.20;99.90;;;;;;5036541;28;20273;-82
2023/05/21 01:00:06;;;;;;;7.88;5.80;;;13.20;99.90;;;;;;5036350;28;20173;-82
2023/05/21 01:02:33;;;;;;;5.85;5.15;;;13.20;99.90;;;;;;5036381;28;20266;-82
2023/05/21 01:04:59;;;;;;;5.60;4.82;;;13.20;99.90;;;;;;5035314;28;20524;-82
2023/05/21 01:07:25;;;;;;;6.15;5.25;;;13.20;99.90;;;;;;5036543;28;20163;-82
2023/05/21 01:09:51;;;;;;;6.13;4.90;;;13.20;99.90;;;;;;5034837;28;20192;-82
2023/05/21 01:12:18;;;;;;;10.55;5.50;;;13.20;99.90;;;;;;5036209;28;20610;-82
2023/05/21 01:14:44;;;;;;;6.07;5.10;;;13.20;99.90;;;;;;5035956;28;20272;-82
2023/05/21 01:17:11;;;;;;;6.22;5.40;;;13.20;99.90;;;;;;5036285;28;20659;-82
2023/05/21 01:19:37;;;;;;;8.52;5.35;;;13.10;99.90;;;;;;5036209;28;20225;-82
2023/05/21 01:22:05;;;;;;;5.78;5.18;;;13.00;99.90;;;;;;5035805;28;20228;-82
2023/05/21 01:24:31;;;;;;;7.55;5.00;;;13.00;99.90;;;;;;5035887;28;20178;-82
2023/05/21 01:27:00;;;;;;;6.10;4.43;;;13.00;99.90;;;;;;5036218;28;20163;-82
2023/05/21 01:29:26;;;;;;;7.10;4.80;;;13.00;99.90;;;;;;5034766;28;20178;-82
2023/05/21 01:32:18;;;;;;;8.48;5.25;;;13.00;99.90;;;;;;5034473;28;20233;-82
2023/05/21 01:34:52;;;;;;;8.55;4.90;;;13.00;99.90;;;;;;5035639;28;20578;-82
2023/05/21 01:37:23;;;;;;;8.77;5.13;;;13.00;99.90;;;;;;5034719;28;20489;-82
2023/05/21 01:39:55;;;;;;;6.82;4.95;;;12.90;99.90;;;;;;5035818;28;20229;-82
2023/05/21 01:42:23;;;;;;;7.55;4.75;;;12.90;99.90;;;;;;5034446;28;20179;-82
2023/05/21 01:44:53;;;;;;;7.65;5.35;;;12.80;99.90;;;;;;5033874;28;20229;-82
2023/05/21 01:47:25;;;;;;;6.93;4.75;;;12.80;99.90;;;;;;5035430;28;20250;-82
2023/05/21 01:49:51;;;;;;;8.48;5.00;;;12.70;99.90;;;;;;5035637;28;20202;-82
2023/05/21 01:52:18;;;;;;;7.60;4.63;;;12.70;99.90;;;;;;5034220;28;20202;-82
2023/05/21 01:54:43;;;;;;;6.88;4.75;;;12.70;99.90;;;;;;5034265;28;20309;-82
2023/05/21 01:57:09;;;;;;;6.40;4.50;;;12.70;99.90;;;;;;5035501;28;20653;-82
2023/05/21 01:59:35;;;;;;;6.88;4.80;;;12.70;99.90;;;;;;5034949;28;20171;-82
2023/05/21 02:02:01;;;;;;;10.00;4.82;;;12.60;99.90;;;;;;5035280;28;20229;-82
2023/05/21 02:04:27;;;;;;;8.30;4.68;;;12.70;99.90;;;;;;5034016;28;20174;-82
2023/05/21 02:06:53;;;;;;;6.10;4.80;;;12.70;99.90;;;;;;5035374;28;20546;-82
2023/05/21 02:09:19;;;;;;;6.88;4.30;;;12.70;99.90;;;;;;5033882;28;20269;-82
2023/05/21 02:11:45;;;;;;;6.32;4.28;;;12.70;99.90;;;;;;5035139;28;20228;-82
2023/05/21 02:14:12;;;;;;;7.72;5.18;;;12.60;99.90;;;;;;5033219;28;20218;-81
2023/05/21 02:16:38;;;;;;;12.70;4.40;;;12.50;99.90;;;;;;5035178;28;20191;-82
2023/05/21 02:19:05;;;;;;;7.22;4.40;;;12.50;99.90;;;;;;5035126;28;20629;-82
2023/05/21 02:21:31;;;;;;;5.72;4.45;;;12.50;99.90;;;;;;5033642;28;20593;-82
2023/05/21 02:23:56;;;;;;;4.63;4.18;;;12.50;99.90;;;;;;5034911;28;20305;-82
2023/05/21 02:26:22;;;;;;;8.38;4.57;;;12.50;99.90;;;;;;5034968;28;20504;-82
2023/05/21 02:28:48;;;;;;;8.73;4.80;;;12.50;99.90;;;;;;5033104;28;20214;-82
2023/05/21 02:31:14;;;;;;;6.35;4.35;;;12.50;99.90;;;;;;5033581;28;20487;-82
2023/05/21 02:33:40;;;;;;;6.47;4.18;;;12.50;99.90;;;;;;5034524;28;20222;-82
2023/05/21 02:36:11;;;;;;;7.95;4.18;;;12.40;99.90;;;;;;5033336;28;20312;-82
2023/05/21 02:38:39;;;;;;;6.75;4.60;;;12.40;99.90;;;;;;5033496;28;20207;-82
2023/05/21 02:41:06;;;;;;;5.28;3.67;;;12.40;99.90;;;;;;5032916;28;20186;-82
2023/05/21 02:43:31;;;;;;;6.25;4.43;;;12.40;99.90;;;;;;5032633;28;20191;-82
2023/05/21 02:45:57;;;;;;;11.40;4.35;;;12.30;99.90;;;;;;5034541;28;20232;-82
2023/05/21 02:48:23;;;;;;;4.90;4.20;;;12.30;99.90;;;;;;5033305;28;20182;-82
2023/05/21 02:50:48;;;;;;;6.55;4.47;;;12.20;99.90;;;;;;5034365;28;20558;-82
2023/05/21 02:53:15;;;;;;;7.22;4.47;;;12.20;99.90;;;;;;5034334;28;20182;-82
2023/05/21 02:55:41;;;;;;;6.97;3.85;;;12.20;99.90;;;;;;5034157;28;20214;-82
2023/05/21 02:58:06;;;;;;;9.82;3.88;;;12.20;99.90;;;;;;5034166;28;20166;-82
2023/05/21 03:00:32;;;;;;;7.55;4.65;;;12.10;99.90;;;;;;5033979;28;20178;-82
2023/05/21 03:02:58;;;;;;;8.63;3.60;;;12.20;99.90;;;;;;5032836;28;20179;-82
2023/05/21 03:05:24;;;;;;;6.30;3.90;;;12.20;99.90;;;;;;5034247;28;20171;-82
2023/05/21 03:07:50;;;;;;;4.80;3.85;;;12.30;99.90;;;;;;5033000;28;20194;-82
2023/05/21 03:10:16;;;;;;;6.38;4.13;;;12.20;99.90;;;;;;5032617;28;20189;-83
2023/05/21 03:12:41;;;;;;;5.00;4.03;;;12.20;99.90;;;;;;5032420;28;20253;-82
2023/05/21 03:15:07;;;;;;;5.28;4.10;;;12.20;99.90;;;;;;5034339;28;20210;-82
2023/05/21 03:17:33;;;;;;;6.25;3.95;;;12.20;99.90;;;;;;5034142;28;20163;-82
2023/05/21 03:19:59;;;;;;;5.13;4.00;;;12.10;99.90;;;;;;5033991;28;20182;-82
2023/05/21 03:22:24;;;;;;;5.40;4.00;;;12.10;99.90;;;;;;5032641;28;20179;-82
2023/05/21 03:24:50;;;;;;;7.45;4.03;;;12.10;99.90;;;;;;5032775;28;20201;-83
2023/05/21 03:27:16;;;;;;;8.57;3.88;;;12.10;99.90;;;;;;5033761;28;20178;-82
2023/05/21 03:29:42;;;;;;;8.55;3.92;;;12.00;99.90;;;;;;5033535;28;20167;-82
2023/05/21 03:32:07;;;;;;;5.32;4.03;;;12.10;99.90;;;;;;5032330;28;20234;-82
2023/05/21 03:34:33;;;;;;;4.78;3.55;;;12.00;99.90;;;;;;5033546;28;20272;-82
2023/05/21 03:36:59;;;;;;;4.57;3.85;;;12.00;99.90;;;;;;5033862;28;20158;-82
2023/05/21 03:39:25;;;;;;;5.88;4.25;;;12.00;99.90;;;;;;5032140;28;20183;-82
2023/05/21 03:41:50;;;;;;;9.27;4.70;;;12.00;99.90;;;;;;5032166;28;20517;-82
2023/05/21 03:44:16;;;;;;;5.68;4.18;;;12.00;99.90;;;;;;5031999;28;20190;-81
2023/05/21 03:46:44;;;;;;;8.63;4.20;;;12.00;99.90;;;;;;5033659;28;20186;-82
2023/05/21 03:49:10;;;;;;;4.95;4.32;;;12.00;99.90;;;;;;5033540;28;20213;-82
2023/05/21 03:51:37;;;;;;;6.63;4.28;;;12.00;99.90;;;;;;5033560;28;20258;-82
2023/05/21 03:54:03;;;;;;;8.52;4.10;;;12.00;99.90;;;;;;5039159;28;20166;-82
2023/05/21 03:56:28;;;;;;;8.32;4.30;;;12.00;99.90;;;;;;5040085;28;20182;-82
2023/05/21 03:58:54;;;;;;;7.53;4.75;;;12.00;99.90;;;;;;5039980;28;20166;-82
2023/05/21 04:01:20;;;;;;;7.88;4.75;;;12.00;99.90;;;;;;5038894;28;20604;-82
2023/05/21 04:03:45;;;;;;;10.77;4.70;;;12.10;99.90;;;;;;5038771;28;20636;-82
2023/05/21 04:06:11;;;;;;;6.05;4.68;;;12.10;99.90;;;;;;5038804;28;20200;-82
2023/05/21 04:08:37;;;;;;;6.60;4.90;;;12.10;99.90;;;;;;5039873;28;20185;-82
2023/05/21 04:11:02;;;;;;;5.85;4.70;;;12.10;99.90;;;;;;5038545;28;20182;-82
2023/05/21 04:13:28;;;;;;;10.13;4.70;;;12.20;99.90;;;;;;5038602;28;20585;-81
2023/05/21 04:15:54;;;;;;;8.73;5.03;;;12.20;99.90;;;;;;5039722;28;20305;-82
2023/05/21 04:18:22;;;;;;;7.45;5.00;;;12.20;99.90;;;;;;5038689;28;20174;-83
2023/05/21 04:20:48;;;;;;;5.78;4.57;;;12.20;99.90;;;;;;5038609;28;20178;-82
2023/05/21 04:23:14;;;;;;;7.15;4.97;;;12.20;99.90;;;;;;5039581;28;20171;-82
2023/05/21 04:25:40;;;;;;;7.55;5.40;;;12.30;99.90;;;;;;5039769;28;20175;-82
2023/05/21 04:28:06;;;;;;;8.90;5.35;;;12.30;99.90;;;;;;5040000;28;20170;-82
2023/05/21 04:30:34;;;;;;;6.05;5.30;;;12.30;99.90;;;;;;5039599;28;20181;-82
2023/05/21 04:33:01;;;;;;;6.03;4.93;;;12.40;99.90;;;;;;5038257;28;20225;-82
2023/05/21 04:35:27;;;;;;;6.40;4.68;;;12.40;99.90;;;;;;5039718;28;20203;-82
2023/05/21 04:37:53;;;;;;;9.20;5.53;;;12.40;99.90;;;;;;5038425;28;20174;-82
2023/05/21 04:40:23;;;;;;;7.55;5.30;;;12.50;99.90;;;;;;5039615;28;20513;-83
2023/05/21 04:42:49;;;;;;;6.80;5.18;;;12.50;99.90;;;;;;5038190;28;20185;-83
2023/05/21 04:45:16;;;;;;;8.10;5.13;;;12.60;99.90;;;;;;5038200;28;20187;-82
2023/05/21 04:47:42;;;;;;;7.47;5.55;;;12.60;99.90;;;;;;5038513;28;20254;-82
2023/05/21 04:50:09;;;;;;;9.73;5.47;;;12.70;99.90;;;;;;5039597;28;20305;-82
2023/05/21 04:52:35;;;;;;;9.88;5.90;;;12.70;99.90;;;;;;5038014;28;20182;-82
2023/05/21 04:55:02;;;;;;;8.73;5.20;;;12.80;99.90;;;;;;5039547;28;20293;-82
2023/05/21 04:57:28;;;;;;;7.82;5.82;;;12.80;99.90;;;;;;5039672;28;20175;-83
2023/05/21 04:59:55;;;;;;;7.35;6.07;;;12.90;99.90;;;;;;5039263;28;20309;-82
2023/05/21 05:02:20;;;;;;;10.07;5.95;;;13.00;99.90;;;;;;5038153;28;20189;-82
2023/05/21 05:04:46;;;;;;;7.75;6.90;;;13.00;99.90;;;;;;5037440;28;20179;-82
2023/05/21 05:07:12;;;;;;;10.32;6.10;;;13.00;99.90;;;;;;5036249;28;20511;-82
2023/05/21 05:09:38;;;;;;;8.73;7.10;;;13.10;99.90;;;;;;5036476;28;20217;-82
2023/05/21 05:12:04;;;;;;;8.98;6.65;;;13.10;99.90;;;;;;5036291;28;20170;-82
2023/05/21 05:14:30;;;;;;;9.85;7.05;;;13.20;99.90;;;;;;5035876;28;20539;-82
2023/05/21 05:16:59;;;;;;;9.07;7.13;;;13.30;99.90;;;;;;5036233;28;20186;-82
2023/05/21 05:19:25;;;;;;;10.43;7.10;;;13.40;99.90;;;;;;5036051;28;20505;-82
2023/05/21 05:21:51;;;;;;;8.18;6.82;;;13.40;99.90;;;;;;5035536;28;20175;-82
2023/05/21 05:24:17;;;;;;;11.65;8.25;;;13.50;99.90;;;;;;5036005;28;20233;-83
2023/05/21 05:26:43;;;;;;;11.20;8.10;;;13.70;99.90;;;;;;5029852;28;20262;-81
2023/05/21 05:29:09;;;;;;;9.88;7.53;;;13.70;99.90;;;;;;5015368;28;20254;-82
2023/05/21 05:31:34;;;;;;;9.40;7.50;;;13.80;99.90;;;;;;5014732;28;20521;-82
2023/05/21 05:34:00;;;;;;;10.82;7.50;;;13.90;99.90;;;;;;5014694;28;20193;-82
2023/05/21 05:36:26;;;;;;;12.80;8.13;;;14.00;99.90;;;;;;5015872;28;20618;-83
2023/05/21 05:38:52;;;;;;;10.13;8.13;;;14.20;99.90;;;;;;5014875;28;20187;-82
2023/05/21 05:41:17;;;;;;;11.05;8.13;;;14.30;99.90;;;;;;5015890;28;20171;-82
2023/05/21 05:43:43;;;;;;;12.07;8.48;;;14.30;99.90;;;;;;5025656;28;20182;-85
2023/05/21 05:46:09;;;;;;;11.02;8.27;;;14.30;99.90;;;;;;5034166;28;20618;-85
2023/05/21 05:48:34;;;;;;;12.68;8.75;;;14.40;99.90;;;;;;5035592;28;20171;-83
2023/05/21 05:51:00;;;;;;;13.43;9.00;;;14.40;99.90;;;;;;5035341;28;20232;-87
2023/05/21 05:53:26;;;;;;;14.45;9.15;;;14.40;99.90;;;;;;5034278;28;20214;-83
2023/05/21 05:55:52;;;;;;;12.95;9.73;;;14.40;99.90;;;;;;5035566;28;20300;-84
2023/05/21 05:58:17;;;;;;;12.35;9.55;;;14.30;99.90;;;;;;5035425;28;20170;-83
2023/05/21 06:00:43;;;;;;;11.13;8.85;;;14.40;99.90;;;;;;5035213;28;20253;-83
2023/05/21 06:03:10;;;;;;;11.82;10.02;;;14.40;99.90;;;;;;5033698;28;20182;-86
2023/05/21 06:05:36;;;;;;;12.90;10.70;;;14.40;99.90;;;;;;5033874;28;20182;-82
2023/05/21 06:08:02;;;;;;;13.23;10.05;;;14.40;99.90;;;;;;5034193;28;20182;-83
2023/05/21 06:10:27;;;;;;;12.15;10.32;;;14.50;99.90;;;;;;5035278;28;20175;-83
2023/05/21 06:12:53;;;;;;;14.82;9.82;;;14.50;99.90;;;;;;5033869;28;20189;-82
2023/05/21 06:15:19;;;;;;;14.88;9.65;;;14.60;99.90;;;;;;5034339;28;20210;-83
2023/05/21 06:17:44;;;;;;;14.10;10.23;;;14.60;99.90;;;;;;5035015;28;20178;-83
2023/05/21 06:20:11;;;;;;;16.35;11.57;;;14.70;99.90;;;;;;5035172;28;20182;-82
2023/05/21 06:22:37;;;;;;;18.63;10.77;;;14.80;99.90;;;;;;5034792;28;20179;-82
2023/05/21 06:25:03;;;;;;;14.70;11.15;;;14.90;99.90;;;;;;5035014;28;20174;-83
2023/05/21 06:27:29;;;;;;;16.48;10.85;;;15.00;99.90;;;;;;5034976;28;20229;-84
2023/05/21 06:29:56;;;;;;;15.93;11.90;;;15.00;99.90;;;;;;5033375;28;20174;-85
2023/05/21 06:32:22;;;;;;;14.73;10.98;;;15.10;99.90;;;;;;5034296;28;20225;-82
2023/05/21 06:34:48;;;;;;;15.02;11.38;;;15.00;99.90;;;;;;5034574;28;20203;-84
2023/05/21 06:37:17;;;;;;;14.57;12.27;;;15.00;99.90;;;;;;5033553;28;20182;-84
2023/05/21 06:39:43;;;;;;;17.83;11.60;;;15.00;99.90;;;;;;5033377;28;20233;-82
2023/05/21 06:42:09;;;;;;;14.82;11.27;;;15.00;99.90;;;;;;5034209;28;20170;-82
2023/05/21 06:44:34;;;;;;;16.13;11.93;;;15.10;99.90;;;;;;5034217;28;20213;-82
2023/05/21 06:47:00;;;;;;;14.82;11.77;;;15.10;99.90;;;;;;5034415;28;20261;-83
2023/05/21 06:49:26;;;;;;;15.25;11.95;;;15.10;99.90;;;;;;5033129;28;20213;-82
2023/05/21 06:51:52;;;;;;;16.77;12.75;;;15.20;99.90;;;;;;5034288;28;20174;-84
2023/05/21 06:54:17;;;;;;;16.40;12.70;;;15.30;99.90;;;;;;5034066;28;20521;-83
2023/05/21 06:56:43;;;;;;;16.35;12.32;;;15.30;99.90;;;;;;5022798;28;20221;-83
2023/05/21 06:59:09;;;;;;;17.02;12.48;;;15.40;99.90;;;;;;5014151;28;20237;-82
2023/05/21 07:01:35;;;;;;;16.95;12.32;;;15.50;99.90;;;;;;5011805;28;20183;-82
2023/05/21 07:04:01;;;;;;;16.77;12.90;;;15.60;99.90;;;;;;5014432;28;20179;-82
2023/05/21 07:06:27;;;;;;;16.08;12.57;;;15.80;99.90;;;;;;5014568;28;20171;-82
2023/05/21 07:08:52;;;;;;;15.40;12.85;;;16.00;99.90;;;;;;5012732;28;20618;-82
2023/05/21 07:11:18;;;;;;;15.40;11.77;;;16.10;99.90;;;;;;5014201;28;20175;-82
2023/05/21 07:13:44;;;;;;;14.05;11.95;;;16.30;99.90;;;;;;5013862;28;20766;-82
2023/05/21 07:16:09;;;;;;;13.88;12.20;;;16.40;99.90;;;;;;5011908;28;20645;-81
2023/05/21 07:18:36;;;;;;;14.10;12.05;;;16.40;99.90;;;;;;5013700;28;20170;-82
2023/05/21 07:21:02;;;;;;;16.05;12.88;;;16.70;99.90;;;;;;5013644;28;20602;-83
2023/05/21 07:23:28;;;;;;;16.42;11.75;;;16.90;99.90;;;;;;5012725;28;20179;-83
2023/05/21 07:25:53;;;;;;;14.60;12.10;;;17.10;99.90;;;;;;5014242;28;20175;-82
2023/05/21 07:28:19;;;;;;;15.68;12.13;;;17.30;99.90;;;;;;5011410;28;20237;-83
2023/05/21 07:30:45;;;;;;;19.05;14.57;;;17.40;99.90;;;;;;5013941;28;20622;-85
2023/05/21 07:33:11;;;;;;;20.27;15.75;;;17.50;99.90;;;;;;5033014;28;20234;-83
2023/05/21 07:35:37;;;;;;;20.35;14.18;;;17.60;99.90;;;;;;5033618;28;20202;-84
2023/05/21 07:38:03;;;;;;;19.65;14.45;;;17.50;99.90;;;;;;5033781;28;20166;-86
2023/05/21 07:40:28;;;;;;;17.48;13.98;;;17.70;99.90;;;;;;5014551;28;20179;-84
2023/05/21 07:42:55;;;;;;;16.17;13.23;;;17.60;99.90;;;;;;5013527;28;20177;-84
2023/05/21 07:45:20;;;;;;;17.63;14.40;;;17.70;99.90;;;;;;5013767;28;20263;-83
2023/05/21 07:47:46;;;;;;;16.15;13.98;;;17.60;99.90;;;;;;5013594;28;20180;-82
2023/05/21 07:50:13;;;;;;;20.25;13.68;;;17.60;99.90;;;;;;5014038;28;20168;-83
2023/05/21 07:52:39;;;;;;;16.45;14.20;;;17.60;99.90;;;;;;5013849;28;20233;-86
2023/05/21 07:55:06;;;;;;;18.90;14.90;;;17.60;99.90;;;;;;5013995;28;20293;-85
2023/05/21 07:57:32;;;;;;;17.50;14.35;;;17.50;99.90;;;;;;5012508;28;20171;-84
2023/05/21 07:59:57;;;;;;;18.67;14.52;;;17.60;99.90;;;;;;5013913;28;20173;-85
2023/05/21 08:02:23;;;;;;;19.95;14.63;;;17.60;99.90;;;;;;5025077;28;20190;-83
2023/05/21 08:04:49;;;;;;;15.85;14.15;;;17.60;99.90;;;;;;5032189;28;20682;-84
2023/05/21 08:07:18;;;;;;;20.02;15.20;;;17.70;99.90;;;;;;5033337;28;20684;-83
2023/05/21 08:09:44;;;;;;;19.83;14.68;;;17.70;99.90;;;;;;5032967;28;20159;-83
2023/05/21 08:12:14;;;;;;;22.17;15.70;;;17.80;99.90;;;;;;5016935;28;20206;-84
2023/05/21 08:14:40;;;;;;;18.50;15.73;;;17.80;99.90;;;;;;5021903;28;20242;-83
2023/05/21 08:17:10;;;;;;;18.13;15.15;;;17.80;99.90;;;;;;5017571;28;20179;-83
2023/05/21 08:19:35;;;;;;;19.15;15.60;;;17.90;99.90;;;;;;5010563;28;20245;-82
2023/05/21 08:22:02;;;;;;;17.63;15.73;;;17.90;99.90;;;;;;5019208;28;20230;-82
2023/05/21 08:24:28;;;;;;;19.33;15.52;;;18.00;99.90;;;;;;5023111;28;20175;-82
2023/05/21 08:26:53;;;;;;;18.50;14.98;;;18.00;99.90;;;;;;5006527;28;20186;-82
2023/05/21 08:29:19;;;;;;;21.40;16.15;;;18.00;99.90;;;;;;5024390;28;20617;-82
2023/05/21 08:31:45;;;;;;;21.65;15.13;;;18.00;99.90;;;;;;5013198;28;20239;-82
2023/05/21 08:34:10;;;;;;;16.38;14.57;;;18.10;99.90;;;;;;5014442;28;20198;-82
2023/05/21 08:36:37;;;;;;;18.17;15.18;;;18.10;99.90;;;;;;5031210;28;20527;-82
2023/05/21 08:39:03;;;;;;;17.90;15.52;;;18.30;99.90;;;;;;5028996;28;20578;-82
2023/05/21 08:41:32;;;;;;;18.08;14.45;;;18.30;99.90;;;;;;5028855;28;20167;-83
2023/05/21 08:44:01;;;;;;;23.08;15.38;;;18.40;99.90;;;;;;5016730;28;20182;-84
2023/05/21 08:46:32;;;;;;;21.75;14.88;;;18.40;99.90;;;;;;5017904;28;20637;-82
2023/05/21 08:49:00;;;;;;;19.20;14.45;;;18.50;99.90;;;;;;5016657;28;20571;-81
2023/05/21 08:51:26;;;;;;;17.85;14.48;;;18.60;99.90;;;;;;5015347;28;20171;-82
2023/05/21 08:53:53;;;;;;;18.33;14.38;;;18.70;99.90;;;;;;5015688;28;20190;-82
2023/05/21 08:56:20;;;;;;;18.90;14.57;;;18.80;99.90;;;;;;5015157;28;20222;-81
2023/05/21 08:58:46;;;;;;;18.42;15.60;;;18.90;99.90;;;;;;5014886;28;20299;-82
2023/05/21 09:01:11;;;;;;;16.48;14.27;;;18.90;99.90;;;;;;5017345;28;20254;-81
2023/05/21 09:03:41;;;;;;;16.55;14.75;;;19.00;99.90;;;;;;5034574;28;20174;-85
2023/05/21 09:06:13;;;;;;;15.90;14.07;;;19.10;99.90;;;;;;5035399;28;20174;-82
2023/05/21 09:08:46;;;;;;;17.88;14.18;;;19.20;99.90;;;;;;5036305;28;20166;-82
2023/05/21 09:11:13;;;;;;;18.65;14.18;;;19.40;99.90;;;;;;5036282;28;20602;-82
2023/05/21 09:13:40;;;;;;;18.70;15.25;;;19.60;99.90;;;;;;5036368;28;20262;-81
2023/05/21 09:16:08;;;;;;;15.77;14.10;;;19.70;99.90;;;;;;5036422;28;20222;-82
2023/05/21 09:18:34;;;;;;;15.05;13.32;;;19.70;99.90;;;;;;5036112;28;20489;-83
2023/05/21 09:21:24;;;;;;;16.60;14.05;;;19.80;99.90;;;;;;5034943;28;20212;-82
2023/05/21 09:23:57;;;;;;;20.38;14.70;;;19.90;99.90;;;;;;5035909;28;20154;-83
2023/05/21 09:26:24;;;;;;;19.38;14.13;;;20.00;99.90;;;;;;5034636;28;20182;-82
2023/05/21 09:28:51;;;;;;;18.27;14.05;;;20.00;99.90;;;;;;5036107;28;20197;-81
2023/05/21 09:31:16;;;;;;;17.13;14.18;;;20.10;99.90;;;;;;5036052;28;20166;-82
2023/05/21 09:33:46;;;;;;;16.75;14.52;;;20.10;99.90;;;;;;5034235;28;20234;-82
2023/05/21 09:36:12;;;;;;;16.98;13.82;;;20.10;99.90;;;;;;5035891;28;20218;-82
2023/05/21 09:38:38;;;;;;;15.82;14.07;;;20.20;99.90;;;;;;5034689;28;20175;-83
2023/05/21 09:41:05;;;;;;;16.92;15.00;;;20.20;99.90;;;;;;5016177;28;20618;-82
2023/05/21 09:43:31;;;;;;;17.25;15.10;;;20.10;99.90;;;;;;5014656;28;20615;-82
2023/05/21 09:45:58;;;;;;;16.45;14.32;;;20.20;99.90;;;;;;5016050;28;20182;-82
2023/05/21 09:48:40;;;;;;;16.30;14.38;;;20.20;99.90;;;;;;5015695;28;20566;-82
2023/05/21 09:51:10;;;;;;;15.45;13.73;;;20.40;99.90;;;;;;5015123;28;20179;-82
2023/05/21 09:53:49;;;;;;;17.83;14.00;;;20.50;99.90;;;;;;5014463;28;20202;-81
2023/05/21 09:56:23;;;;;;;19.45;13.45;;;20.50;99.90;;;;;;5015865;28;20199;-83
2023/05/21 09:59:03;;;;;;;16.50;13.43;;;20.70;99.90;;;;;;5013618;28;20517;-81
2023/05/21 10:01:32;;;;;;;16.98;13.90;;;20.70;99.90;;;;;;5014866;28;20159;-82
2023/05/21 10:03:59;;;;;;;17.35;14.48;;;20.90;99.90;;;;;;5014555;28;20175;-84
2023/05/21 10:06:27;;;;;;;16.10;14.25;;;21.10;99.90;;;;;;5019722;28;20513;-83
2023/05/21 10:08:57;;;;;;;18.73;14.32;;;21.20;99.90;;;;;;5025377;28;20183;-87
2023/05/21 10:11:26;;;;;;;17.40;13.98;;;21.30;99.90;;;;;;5012069;28;20162;-82
2023/05/21 10:14:05;;;;;;;17.80;14.48;;;21.40;99.90;;;;;;5020125;28;20213;-82
2023/05/21 10:16:32;;;;;;;16.70;13.82;;;21.80;99.90;;;;;;5014161;28;20298;-82
2023/05/21 10:18:59;;;;;;;18.38;13.43;;;21.90;99.90;;;;;;5016228;28;20175;-84
2023/05/21 10:21:32;;;;;;;16.30;13.23;;;22.00;99.90;;;;;;5022109;28;20201;-84
2023/05/21 10:24:00;;;;;;;15.52;13.07;;;22.20;99.90;;;;;;5018606;28;20174;-86
2023/05/21 10:26:26;;;;;;;15.88;12.98;;;22.10;99.90;;;;;;5025868;28;20210;-82
2023/05/21 10:28:58;;;;;;;14.45;12.88;;;22.10;99.90;;;;;;5022305;28;20213;-86
2023/05/21 10:31:25;;;;;;;16.27;13.38;;;22.20;99.90;;;;;;5023842;28;20250;-83
2023/05/21 10:33:53;;;;;;;17.35;12.88;;;22.20;99.90;;;;;;5023924;28;20711;-82
2023/05/21 10:36:20;;;;;;;15.10;12.80;;;22.30;99.90;;;;;;5023997;28;20288;-82
2023/05/21 10:38:46;;;;;;;14.80;12.93;;;22.40;99.90;;;;;;5020527;28;20179;-81
2023/05/21 10:41:18;;;;;;;15.77;12.65;;;22.50;99.90;;;;;;5022187;28;20245;-83
2023/05/21 10:44:19;;;;;;;13.77;11.93;;;22.70;99.90;;;;;;5024744;28;20357;-83
2023/05/21 10:47:08;;;;;;;16.02;11.77;;;23.00;99.90;;;;;;4997948;28;20206;-83
2023/05/21 10:49:48;;;;;;;12.73;11.43;;;23.20;99.90;;;;;;5019187;28;20205;-83
2023/05/21 10:52:35;;;;;;;17.02;11.88;;;23.40;99.90;;;;;;5022784;28;20265;-81
2023/05/21 10:55:09;;;;;;;16.02;11.93;;;23.60;99.90;;;;;;5023548;28;20771;-82
2023/05/21 10:58:06;;;;;;;13.43;11.73;;;23.70;99.90;;;;;;5023509;28;20197;-82
2023/05/21 11:00:32;;;;;;;16.65;12.05;;;23.70;99.90;;;;;;5020914;28;20190;-83
2023/05/21 11:02:59;;;;;;;13.45;12.13;;;23.70;99.90;;;;;;5023402;28;20184;-82
2023/05/21 11:05:52;;;;;;;17.23;11.57;;;23.60;99.90;;;;;;5025552;28;20187;-82
2023/05/21 11:08:24;;;;;;;14.27;11.68;;;23.70;99.90;;;;;;5021541;28;20167;-84
2023/05/21 11:10:56;;;;;;;13.80;11.73;;;23.70;99.90;;;;;;5021672;28;20197;-83
2023/05/21 11:13:23;;;;;;;13.20;11.57;;;23.80;99.90;;;;;;5020886;28;20175;-83
2023/05/21 11:16:01;;;;;;;13.82;12.32;;;24.00;99.90;;;;;;5026332;28;20260;-82
2023/05/21 11:18:32;;;;;;;14.68;11.30;;;24.30;99.90;;;;;;5020456;28;20634;-84
2023/05/21 11:21:13;;;;;;;12.27;10.88;;;24.60;99.90;;;;;;5010879;28;20187;-82
2023/05/21 11:23:55;;;;;;;16.25;11.40;;;24.70;99.90;;;;;;5020580;28;20225;-84
2023/05/21 11:26:25;;;;;;;12.93;11.43;;;24.90;99.90;;;;;;5021031;28;20190;-83
2023/05/21 11:29:03;;;;;;;12.93;11.60;;;25.00;99.90;;;;;;5029937;28;20206;-82
2023/05/21 11:31:36;;;;;;;16.33;12.13;;;25.20;99.90;;;;;;5021397;28;20185;-83
2023/05/21 11:34:14;;;;;;;13.35;11.23;;;25.00;99.90;;;;;;5027349;28;20202;-86
2023/05/21 11:36:42;;;;;;;16.45;11.95;;;25.20;99.90;;;;;;5033570;28;20202;-82
2023/05/21 11:39:22;;;;;;;14.60;11.90;;;25.30;99.90;;;;;;5022289;28;20179;-83
2023/05/21 11:42:01;;;;;;;14.98;12.38;;;25.40;99.90;;;;;;5012047;28;20174;-82
2023/05/21 11:44:40;;;;;;;17.55;11.05;;;25.40;99.90;;;;;;5017386;28;20175;-86
2023/05/21 11:47:08;;;;;;;17.63;11.77;;;25.40;99.90;;;;;;5010863;28;20228;-83
2023/05/21 11:49:34;;;;;;;17.48;11.68;;;25.40;99.90;;;;;;5013650;28;20539;-82
2023/05/21 11:52:01;;;;;;;12.85;11.35;;;25.40;99.90;;;;;;5013548;28;20178;-83
2023/05/21 11:54:37;;;;;;;13.55;11.35;;;25.60;99.90;;;;;;5013166;28;20175;-82
2023/05/21 11:57:06;;;;;;;13.02;11.73;;;25.60;99.90;;;;;;5011985;28;20637;-83
2023/05/21 11:59:33;;;;;;;12.75;11.05;;;25.60;99.90;;;;;;5012899;28;20292;-82
2023/05/21 12:02:00;;;;;;;16.08;11.20;;;25.60;99.90;;;;;;5013620;28;20187;-84
2023/05/21 12:04:30;;;;;;;13.90;12.07;;;25.90;99.90;;;;;;5013589;28;20179;-82
2023/05/21 12:06:57;;;;;;;12.77;11.43;;;26.10;99.90;;;;;;5012454;28;20183;-84
2023/05/21 12:09:23;;;;;;;14.02;11.57;;;26.30;99.50;;;;;;5013586;28;20245;-84
2023/05/21 12:11:50;;;;;;;11.93;10.70;;;26.50;99.30;;;;;;5013467;28;20171;-82
2023/05/21 12:14:16;;;;;;;13.57;11.35;;;26.60;99.60;;;;;;5025967;28;20208;-83
2023/05/21 12:16:42;;;;;;;12.13;10.85;;;26.60;99.30;;;;;;5022851;28;20261;-81
2023/05/21 12:19:08;;;;;;;12.23;10.98;;;26.60;97.60;;;;;;5017432;28;20230;-81
2023/05/21 12:21:35;;;;;;;12.65;11.20;;;26.50;98.10;;;;;;5017049;28;20214;-81
2023/05/21 12:24:01;;;;;;;13.15;10.52;;;26.30;99.80;;;;;;5017265;28;20167;-81
2023/05/21 12:26:27;;;;;;;12.27;10.25;;;26.20;98.10;;;;;;5017278;28;20230;-81
2023/05/21 12:28:56;;;;;;;14.02;10.65;;;26.20;98.70;;;;;;5017315;28;20522;-81
2023/05/21 12:31:23;;;;;;;12.10;10.82;;;26.50;99.30;;;;;;5017492;28;20632;-86
2023/05/21 12:33:50;;;;;;;13.90;10.60;;;26.70;97.20;;;;;;5017349;28;20266;-88
2023/05/21 12:36:26;;;;;;;12.57;10.88;;;26.90;97.30;;;;;;5017467;28;20215;-84
2023/05/21 12:38:52;;;;;;;12.70;10.13;;;26.90;96.50;;;;;;5017549;28;20205;-87